createdAt,value
2018-06-04T00:02:18.919Z,26.60
2018-06-04T00:04:47.008Z,26.60
2018-06-04T00:07:15.107Z,26.60
2018-06-04T00:09:43.223Z,26.60
2018-06-04T00:12:11.331Z,26.50
2018-06-04T00:14:39.424Z,26.50
2018-06-04T00:17:07.513Z,26.50
2018-06-04T00:19:35.655Z,26.50
2018-06-04T00:24:32.752Z,26.50
2018-06-04T00:27:00.875Z,26.50
2018-06-04T00:29:28.972Z,26.40
2018-06-04T00:31:57.111Z,26.40
2018-06-04T00:34:25.212Z,26.40
2018-06-04T00:36:53.299Z,26.40
2018-06-04T00:39:21.604Z,26.30
2018-06-04T00:41:49.720Z,26.30
2018-06-04T00:44:17.829Z,26.20
2018-06-04T00:46:45.926Z,26.20
2018-06-04T00:49:14.400Z,26.30
2018-06-04T00:51:42.507Z,26.20
2018-06-04T00:54:10.777Z,26.20
2018-06-04T00:56:38.875Z,26.10
2018-06-04T00:59:06.943Z,26.10
2018-06-04T01:01:35.048Z,26.10
2018-06-04T01:04:03.167Z,26.20
2018-06-04T01:06:31.276Z,26.10
2018-06-04T01:08:59.415Z,26.10
2018-06-04T01:11:27.524Z,26.20
2018-06-04T01:13:55.616Z,26.20
2018-06-04T01:16:23.771Z,26.20
2018-06-04T01:18:51.945Z,26.30
2018-06-04T01:21:20.032Z,26.30
2018-06-04T01:23:48.128Z,26.30
2018-06-04T01:26:16.270Z,26.30
2018-06-04T01:28:44.394Z,26.30
2018-06-04T01:31:12.515Z,26.30
2018-06-04T01:33:40.930Z,26.30
2018-06-04T01:36:09.064Z,26.30
2018-06-04T01:38:37.191Z,26.30
2018-06-04T01:41:05.280Z,26.30
2018-06-04T01:43:33.368Z,26.30
2018-06-04T01:46:01.446Z,26.30
2018-06-04T01:48:29.580Z,26.30
2018-06-04T01:50:57.664Z,26.30
2018-06-04T01:53:25.819Z,26.30
2018-06-04T01:55:53.906Z,26.30
2018-06-04T01:58:21.998Z,26.30
2018-06-04T02:00:50.219Z,26.30
2018-06-04T02:03:18.319Z,26.30
2018-06-04T02:05:46.437Z,26.30
2018-06-04T02:08:14.536Z,26.30
2018-06-04T02:10:42.608Z,26.30
2018-06-04T02:15:38.691Z,26.30
2018-06-04T02:18:06.797Z,26.30
2018-06-04T02:20:34.895Z,26.40
2018-06-04T02:23:02.998Z,26.30
2018-06-04T02:25:31.080Z,26.30
2018-06-04T02:27:59.163Z,26.30
2018-06-04T02:30:27.270Z,26.30
2018-06-04T02:32:55.367Z,26.40
2018-06-04T02:35:23.447Z,26.30
2018-06-04T02:37:51.554Z,26.30
2018-06-04T02:40:19.655Z,26.30
2018-06-04T02:42:47.881Z,26.30
2018-06-04T02:45:16.175Z,26.30
2018-06-04T02:47:44.237Z,26.20
2018-06-04T02:50:12.380Z,26.20
2018-06-04T02:52:40.534Z,26.10
2018-06-04T02:55:08.661Z,26.10
2018-06-04T02:57:36.787Z,26.10
2018-06-04T03:00:05.027Z,26.10
2018-06-04T03:02:33.135Z,26.10
2018-06-04T03:05:01.249Z,26.10
2018-06-04T03:07:29.333Z,26.10
2018-06-04T03:09:57.464Z,26.20
2018-06-04T03:12:25.567Z,26.20
2018-06-04T03:14:53.651Z,26.20
2018-06-04T03:17:21.769Z,26.10
2018-06-04T03:19:49.866Z,26.20
2018-06-04T03:22:17.935Z,26.20
2018-06-04T03:24:46.020Z,26.20
2018-06-04T03:27:14.095Z,26.20
2018-06-04T03:29:42.182Z,26.20
2018-06-04T03:32:10.308Z,26.20
2018-06-04T03:34:38.420Z,26.20
2018-06-04T03:37:06.492Z,26.20
2018-06-04T03:39:34.634Z,26.20
2018-06-04T03:42:02.760Z,26.20
2018-06-04T03:44:30.866Z,26.20
2018-06-04T03:46:58.964Z,26.20
2018-06-04T03:49:27.063Z,26.20
2018-06-04T03:51:55.152Z,26.10
2018-06-04T03:54:23.302Z,26.10
2018-06-04T03:56:51.375Z,26.10
2018-06-04T03:59:19.491Z,26.00
2018-06-04T04:01:47.637Z,26.00
2018-06-04T04:04:15.723Z,26.00
2018-06-04T04:06:43.843Z,25.90
2018-06-04T04:11:39.936Z,25.50
2018-06-04T04:14:08.034Z,25.50
2018-06-04T04:16:38.115Z,25.50
2018-06-04T04:19:06.367Z,25.50
2018-06-04T04:21:34.483Z,25.50
2018-06-04T04:24:02.579Z,25.30
2018-06-04T04:26:30.663Z,25.30
2018-06-04T04:28:58.787Z,25.40
2018-06-04T04:31:27.561Z,25.50
2018-06-04T04:33:56.464Z,25.60
2018-06-04T04:36:24.556Z,25.60
2018-06-04T04:38:53.736Z,25.50
2018-06-04T04:41:22.245Z,25.10
2018-06-04T04:43:50.331Z,24.90
2018-06-04T04:46:19.157Z,24.80
2018-06-04T04:51:15.218Z,24.70
2018-06-04T04:53:43.848Z,24.80
2018-06-04T04:56:11.950Z,24.90
2018-06-04T04:58:40.136Z,25.10
2018-06-04T05:01:08.217Z,25.20
2018-06-04T05:03:36.315Z,25.20
2018-06-04T05:06:04.771Z,25.00
2018-06-04T05:08:32.991Z,24.90
2018-06-04T05:11:01.769Z,24.90
2018-06-04T05:13:29.872Z,25.00
2018-06-04T05:15:58.324Z,25.20
2018-06-04T05:18:26.461Z,25.30
2018-06-04T05:20:54.533Z,25.50
2018-06-04T05:23:22.660Z,25.60
2018-06-04T05:25:50.741Z,25.70
2018-06-04T05:28:18.812Z,25.80
2018-06-04T05:30:47.093Z,25.80
2018-06-04T05:33:15.199Z,25.80
2018-06-04T05:35:43.608Z,25.90
2018-06-04T05:38:11.804Z,25.90
2018-06-04T05:40:41.798Z,25.90
2018-06-04T05:43:09.907Z,26.00
2018-06-04T05:45:38.016Z,26.00
2018-06-04T05:48:06.150Z,26.00
2018-06-04T05:50:34.235Z,26.00
2018-06-04T05:53:02.981Z,26.00
2018-06-04T05:55:31.064Z,26.00
2018-06-04T05:57:59.152Z,26.00
2018-06-04T06:00:27.237Z,26.00
2018-06-04T06:02:56.183Z,26.00
2018-06-04T06:05:24.881Z,26.00
2018-06-04T06:07:58.573Z,26.00
2018-06-04T06:10:26.723Z,26.00
2018-06-04T06:12:54.795Z,26.10
2018-06-04T06:15:22.941Z,26.10
2018-06-04T06:17:51.020Z,26.10
2018-06-04T06:20:19.147Z,26.10
2018-06-04T06:22:47.336Z,26.00
2018-06-04T06:25:15.431Z,26.00
2018-06-04T06:27:44.435Z,26.10
2018-06-04T06:30:13.399Z,26.10
2018-06-04T06:32:43.044Z,26.10
2018-06-04T06:35:11.146Z,26.10
2018-06-04T06:37:39.240Z,26.10
2018-06-04T06:40:10.817Z,26.10
2018-06-04T06:42:41.016Z,26.10
2018-06-04T06:45:09.315Z,26.10
2018-06-04T06:47:38.008Z,26.10
2018-06-04T06:50:06.107Z,26.10
2018-06-04T06:52:34.205Z,26.10
2018-06-04T06:55:02.355Z,26.10
2018-06-04T06:57:30.459Z,26.10
2018-06-04T06:59:58.676Z,26.10
2018-06-04T07:02:26.820Z,26.10
2018-06-04T07:04:54.915Z,26.10
2018-06-04T07:07:23.107Z,26.10
2018-06-04T07:09:51.209Z,26.10
2018-06-04T07:12:19.283Z,26.10
2018-06-04T07:14:47.373Z,26.10
2018-06-04T07:17:15.447Z,26.20
2018-06-04T07:19:43.571Z,26.20
2018-06-04T07:22:11.670Z,26.20
2018-06-04T07:24:39.783Z,26.20
2018-06-04T07:27:08.067Z,26.30
2018-06-04T07:29:36.189Z,26.20
2018-06-04T07:32:05.416Z,26.30
2018-06-04T07:34:33.523Z,26.20
2018-06-04T07:37:01.636Z,26.20
2018-06-04T07:39:30.375Z,26.20
2018-06-04T07:41:59.123Z,26.20
2018-06-04T07:44:28.047Z,26.30
2018-06-04T07:46:56.154Z,26.20
2018-06-04T07:49:24.429Z,26.20
2018-06-04T07:51:52.523Z,26.20
2018-06-04T07:54:20.615Z,26.30
2018-06-04T07:59:17.839Z,26.20
2018-06-04T08:01:45.987Z,26.20
2018-06-04T08:04:14.059Z,26.20
2018-06-04T08:06:42.178Z,26.30
2018-06-04T08:09:10.302Z,26.20
2018-06-04T08:11:38.407Z,26.20
2018-06-04T08:14:06.645Z,26.20
2018-06-04T08:16:34.743Z,26.30
2018-06-04T08:19:03.054Z,26.20
2018-06-04T08:21:31.248Z,26.30
2018-06-04T08:23:59.388Z,26.30
2018-06-04T08:26:27.488Z,26.30
2018-06-04T08:28:55.752Z,26.30
2018-06-04T08:31:24.385Z,26.30
2018-06-04T08:33:52.600Z,26.30
2018-06-04T08:36:20.755Z,26.30
2018-06-04T08:38:49.533Z,26.40
2018-06-04T08:41:17.788Z,26.30
2018-06-04T08:43:45.905Z,26.40
2018-06-04T08:46:14.212Z,26.30
2018-06-04T08:48:42.329Z,26.40
2018-06-04T08:51:10.457Z,26.30
2018-06-04T08:53:40.040Z,26.40
2018-06-04T08:56:08.269Z,26.30
2018-06-04T08:58:36.401Z,26.40
2018-06-04T09:01:04.505Z,26.40
2018-06-04T09:03:32.581Z,26.40
2018-06-04T09:06:00.859Z,26.40
2018-06-04T09:08:29.124Z,26.40
2018-06-04T09:10:58.064Z,26.40
2018-06-04T09:13:26.156Z,26.40
2018-06-04T09:15:54.255Z,26.40
2018-06-04T09:18:22.551Z,26.40
2018-06-04T09:20:50.663Z,26.40
2018-06-04T09:23:18.914Z,26.40
2018-06-04T09:28:14.983Z,26.50
2018-06-04T09:30:43.065Z,26.40
2018-06-04T09:33:11.171Z,26.40
2018-06-04T09:35:39.538Z,26.40
2018-06-04T09:38:07.653Z,26.50
2018-06-04T09:43:06.387Z,26.50
2018-06-04T09:45:34.587Z,26.50
2018-06-04T09:48:02.758Z,26.50
2018-06-04T09:50:31.065Z,26.50
2018-06-04T09:52:59.211Z,26.50
2018-06-04T09:55:29.274Z,26.40
2018-06-04T09:58:00.516Z,26.50
2018-06-04T10:00:35.212Z,26.50
2018-06-04T10:03:04.199Z,26.40
2018-06-04T10:05:32.780Z,26.40
2018-06-04T10:08:00.922Z,26.40
2018-06-04T10:10:29.154Z,26.40
2018-06-04T10:12:57.333Z,26.50
2018-06-04T10:15:25.452Z,26.40
2018-06-04T10:17:53.562Z,26.40
2018-06-04T10:20:21.745Z,26.40
2018-06-04T10:22:49.890Z,26.50
2018-06-04T10:25:18.001Z,26.40
2018-06-04T10:27:46.253Z,26.50
2018-06-04T10:30:14.644Z,26.50
2018-06-04T10:32:42.760Z,26.50
2018-06-04T10:35:10.923Z,26.50
2018-06-04T10:37:39.099Z,26.50
2018-06-04T10:40:07.229Z,26.50
2018-06-04T10:42:35.360Z,26.50
2018-06-04T10:45:03.487Z,26.50
2018-06-04T10:47:31.614Z,26.50
2018-06-04T10:49:59.843Z,26.50
2018-06-04T10:52:27.953Z,26.60
2018-06-04T10:57:24.016Z,26.70
2018-06-04T10:59:52.439Z,26.70
2018-06-04T11:02:20.575Z,26.80
2018-06-04T11:04:48.955Z,26.70
2018-06-04T11:07:17.119Z,26.70
2018-06-04T11:09:45.346Z,26.70
2018-06-04T11:12:13.442Z,26.60
2018-06-04T11:14:41.549Z,26.60
2018-06-04T11:17:09.628Z,26.60
2018-06-04T11:19:37.738Z,26.60
2018-06-04T11:22:05.872Z,26.60
2018-06-04T11:24:33.972Z,26.60
2018-06-04T11:27:02.098Z,26.50
2018-06-04T11:29:30.194Z,26.50
2018-06-04T11:31:58.309Z,26.50
2018-06-04T11:34:26.400Z,26.50
2018-06-04T11:36:54.521Z,26.50
2018-06-04T11:39:22.646Z,26.50
2018-06-04T11:41:50.771Z,26.50
2018-06-04T11:44:20.510Z,26.50
2018-06-04T11:46:48.660Z,26.50
2018-06-04T11:49:18.086Z,26.60
2018-06-04T11:51:46.216Z,26.60
2018-06-04T11:54:14.353Z,26.50
2018-06-04T11:59:10.461Z,26.50
2018-06-04T12:01:38.598Z,26.50
2018-06-04T12:06:34.654Z,26.50
2018-06-04T12:09:02.825Z,26.50
2018-06-04T12:11:31.607Z,26.60
2018-06-04T12:16:27.584Z,26.60
2018-06-04T12:18:55.731Z,26.60
2018-06-04T12:21:23.983Z,26.60
2018-06-04T12:23:52.096Z,26.60
2018-06-04T12:26:20.233Z,26.50
2018-06-04T12:31:17.698Z,26.60
2018-06-04T12:33:45.945Z,26.60
2018-06-04T12:36:14.081Z,26.60
2018-06-04T12:38:42.468Z,26.60
2018-06-04T12:41:12.807Z,26.60
2018-06-04T12:43:42.164Z,26.50
2018-06-04T12:46:11.994Z,26.50
2018-06-04T12:48:40.819Z,26.50
2018-06-04T12:51:08.939Z,26.50
2018-06-04T12:56:05.062Z,26.50
2018-06-04T12:58:33.172Z,26.50
2018-06-04T13:01:01.263Z,26.50
2018-06-04T13:03:29.419Z,26.50
2018-06-04T13:05:57.660Z,26.50
2018-06-04T13:08:25.812Z,26.50
2018-06-04T13:10:54.170Z,26.50
2018-06-04T13:13:22.469Z,26.50
2018-06-04T13:15:50.569Z,26.50
2018-06-04T13:18:18.667Z,26.50
2018-06-04T13:20:47.032Z,26.50
2018-06-04T13:23:15.161Z,26.50
2018-06-04T13:25:43.286Z,26.50
2018-06-04T13:28:11.407Z,26.50
2018-06-04T13:30:39.604Z,26.50
2018-06-04T13:33:07.715Z,26.50
2018-06-04T13:35:35.848Z,26.50
2018-06-04T13:38:03.965Z,26.50
2018-06-04T13:40:32.065Z,26.50
2018-06-04T13:43:00.340Z,26.50
2018-06-04T13:45:28.461Z,26.50
2018-06-04T13:47:56.648Z,26.50
2018-06-04T13:50:24.833Z,26.50
2018-06-04T13:52:53.156Z,26.50
2018-06-04T13:55:21.279Z,26.50
2018-06-04T14:00:17.400Z,26.50
2018-06-04T14:02:45.588Z,26.50
2018-06-04T14:05:13.669Z,26.50
2018-06-04T14:07:41.838Z,26.50
2018-06-04T14:10:10.025Z,26.50
2018-06-04T14:12:38.148Z,26.50
2018-06-04T14:15:06.257Z,26.50
2018-06-04T14:17:34.351Z,26.50
2018-06-04T14:20:02.640Z,26.50
2018-06-04T14:22:30.968Z,26.50
2018-06-04T14:24:59.076Z,26.50
2018-06-04T14:29:55.933Z,26.50
2018-06-04T14:32:24.082Z,26.50
2018-06-04T14:34:52.244Z,26.50
2018-06-04T14:37:20.532Z,26.50
2018-06-04T14:39:48.780Z,26.50
2018-06-04T14:42:16.992Z,26.50
2018-06-04T14:44:45.156Z,26.50
2018-06-04T14:47:13.698Z,26.50
2018-06-04T14:49:41.925Z,26.40
2018-06-04T14:52:10.187Z,26.50
2018-06-04T14:54:38.712Z,26.40
2018-06-04T14:57:06.824Z,26.40
2018-06-04T14:59:34.920Z,26.50
2018-06-04T15:02:03.109Z,26.50
2018-06-04T15:04:31.243Z,26.50
2018-06-04T15:06:59.401Z,26.50
2018-06-04T15:09:27.501Z,26.50
2018-06-04T15:11:55.603Z,26.50
2018-06-04T15:14:23.704Z,26.50
2018-06-04T15:16:51.837Z,26.50
2018-06-04T15:19:19.995Z,26.50
2018-06-04T15:21:48.095Z,26.50
2018-06-04T15:24:16.289Z,26.50
2018-06-04T15:26:44.466Z,26.50
2018-06-04T15:29:12.579Z,26.50
2018-06-04T15:31:44.755Z,26.50
2018-06-04T15:34:13.597Z,26.50
2018-06-04T15:36:41.725Z,26.50
2018-06-04T15:39:10.061Z,26.50
2018-06-04T15:41:40.547Z,26.50
2018-06-04T15:44:08.695Z,26.50
2018-06-04T15:46:36.816Z,26.50
2018-06-04T15:49:07.536Z,26.50
2018-06-04T15:51:35.649Z,26.50
2018-06-04T15:54:03.812Z,26.40
2018-06-04T15:58:59.972Z,26.50
2018-06-04T16:01:28.069Z,26.50
2018-06-04T16:03:56.196Z,26.50
2018-06-04T16:06:24.364Z,26.50
2018-06-04T16:08:52.476Z,26.50
2018-06-04T16:11:20.651Z,26.50
2018-06-04T16:13:48.760Z,26.50
2018-06-04T16:16:16.879Z,26.50
2018-06-04T16:18:44.985Z,26.50
2018-06-04T16:21:13.144Z,26.60
2018-06-04T16:23:42.033Z,26.50
2018-06-04T16:26:10.166Z,26.50
2018-06-04T16:28:38.278Z,26.50
2018-06-04T16:31:09.318Z,26.50
2018-06-04T16:33:37.604Z,26.60
2018-06-04T16:36:06.646Z,26.50
2018-06-04T16:38:36.091Z,26.50
2018-06-04T16:43:51.000Z,26.60
2018-06-04T16:46:19.136Z,26.60
2018-06-04T16:51:15.226Z,26.60
2018-06-04T16:53:43.386Z,26.60
2018-06-04T16:56:11.479Z,26.60
2018-06-04T16:58:39.597Z,26.60
2018-06-04T17:01:08.236Z,26.60
2018-06-04T17:03:36.556Z,26.60
2018-06-04T17:08:32.646Z,26.60
2018-06-04T17:11:00.773Z,26.60
2018-06-04T17:13:29.199Z,26.60
2018-06-04T17:15:57.348Z,26.60
2018-06-04T17:18:25.447Z,26.60
2018-06-04T17:20:53.568Z,26.60
2018-06-04T17:23:21.663Z,26.60
2018-06-04T17:25:49.763Z,26.60
2018-06-04T17:28:17.869Z,26.60
2018-06-04T17:30:45.983Z,26.60
2018-06-04T17:33:14.087Z,26.60
2018-06-04T17:35:42.212Z,26.60
2018-06-04T17:38:10.296Z,26.70
2018-06-04T17:40:38.686Z,26.70
2018-06-04T17:43:10.705Z,26.70
2018-06-04T17:45:38.823Z,26.70
2018-06-04T17:48:06.936Z,26.70
2018-06-04T17:50:35.047Z,26.70
2018-06-04T17:53:03.148Z,26.70
2018-06-04T17:55:31.239Z,26.80
2018-06-04T17:57:59.347Z,26.80
2018-06-04T18:00:27.448Z,26.80
2018-06-04T18:02:55.544Z,26.70
2018-06-04T18:05:23.669Z,26.70
2018-06-04T18:07:51.812Z,26.70
2018-06-04T18:10:19.933Z,26.70
2018-06-04T18:12:48.021Z,26.70
2018-06-04T18:15:16.138Z,26.60
2018-06-04T18:17:44.273Z,26.50
2018-06-04T18:22:40.667Z,26.50
2018-06-04T18:25:08.781Z,26.50
2018-06-04T18:27:37.207Z,26.40
2018-06-04T18:30:05.445Z,26.40
2018-06-04T18:32:33.535Z,26.40
2018-06-04T18:35:01.638Z,26.40
2018-06-04T18:37:29.747Z,26.40
2018-06-04T18:39:58.895Z,26.30
2018-06-04T18:42:27.879Z,26.30
2018-06-04T18:44:55.979Z,26.30
2018-06-04T18:47:24.077Z,26.30
2018-06-04T18:49:52.159Z,26.30
2018-06-04T18:52:20.239Z,26.30
2018-06-04T18:54:50.223Z,26.40
2018-06-04T18:57:18.316Z,26.50
2018-06-04T18:59:46.386Z,26.50
2018-06-04T19:02:14.607Z,26.50
2018-06-04T19:04:42.697Z,26.50
2018-06-04T19:07:10.781Z,26.50
2018-06-04T19:09:38.876Z,26.60
2018-06-04T19:12:07.015Z,26.60
2018-06-04T19:14:35.351Z,26.70
2018-06-04T19:17:03.658Z,26.70
2018-06-04T19:19:31.731Z,26.70
2018-06-04T19:21:59.835Z,26.70
2018-06-04T19:24:27.958Z,26.70
2018-06-04T19:26:59.064Z,26.70
2018-06-04T19:29:27.120Z,26.70
2018-06-04T19:31:55.214Z,26.80
2018-06-04T19:34:27.424Z,26.70
2018-06-04T19:39:24.269Z,26.60
2018-06-04T19:41:52.349Z,26.50
2018-06-04T19:44:20.438Z,26.30
2018-06-04T19:46:48.519Z,26.10
2018-06-04T19:49:16.599Z,25.80
2018-06-04T19:51:44.875Z,25.60
2018-06-04T19:54:12.948Z,25.60
2018-06-04T19:56:41.096Z,25.50
2018-06-04T19:59:09.196Z,25.40
2018-06-04T20:01:37.271Z,25.40
2018-06-04T20:04:05.617Z,25.50
2018-06-04T20:06:33.697Z,25.50
2018-06-04T20:09:02.719Z,25.50
2018-06-04T20:11:30.838Z,25.50
2018-06-04T20:13:59.659Z,25.40
2018-06-04T20:16:27.795Z,25.50
2018-06-04T20:18:55.944Z,25.40
2018-06-04T20:21:24.075Z,25.40
2018-06-04T20:23:52.342Z,25.30
2018-06-04T20:26:20.677Z,25.30
2018-06-04T20:28:48.787Z,25.30
2018-06-04T20:31:16.911Z,25.30
2018-06-04T20:33:45.072Z,25.30
2018-06-04T20:36:13.157Z,25.20
2018-06-04T20:38:41.326Z,25.10
2018-06-04T20:41:09.418Z,25.30
2018-06-04T20:43:37.528Z,25.40
2018-06-04T20:46:05.701Z,25.40
2018-06-04T20:48:33.806Z,25.30
2018-06-04T20:51:01.940Z,25.30
2018-06-04T20:53:30.043Z,25.40
2018-06-04T20:58:26.186Z,25.50
2018-06-04T21:00:54.302Z,25.50
2018-06-04T21:03:22.410Z,25.60
2018-06-04T21:05:50.531Z,25.40
2018-06-04T21:08:18.643Z,25.30
2018-06-04T21:10:46.738Z,25.10
2018-06-04T21:13:14.888Z,25.20
2018-06-04T21:15:43.007Z,25.30
2018-06-04T21:18:11.150Z,25.50
2018-06-04T21:20:39.295Z,25.40
2018-06-04T21:23:07.513Z,25.40
2018-06-04T21:25:35.607Z,25.30
2018-06-04T21:28:03.745Z,25.30
2018-06-04T21:30:31.871Z,25.30
2018-06-04T21:32:59.898Z,25.30
2018-06-04T21:35:28.000Z,25.30
2018-06-04T21:37:56.097Z,25.30
2018-06-04T21:40:24.179Z,25.30
2018-06-04T21:42:52.267Z,25.30
2018-06-04T21:45:20.355Z,25.30
2018-06-04T21:47:48.431Z,25.30
2018-06-04T21:50:16.525Z,25.10
2018-06-04T21:52:44.598Z,25.00
2018-06-04T21:55:12.687Z,24.90
2018-06-04T21:57:40.760Z,24.90
2018-06-04T22:00:09.763Z,25.10
2018-06-04T22:02:38.726Z,25.20
2018-06-04T22:05:06.827Z,25.30
2018-06-04T22:07:34.919Z,25.30
2018-06-04T22:10:03.048Z,25.40
2018-06-04T22:14:59.083Z,25.20
2018-06-04T22:17:27.171Z,25.20
2018-06-04T22:19:55.262Z,25.20
2018-06-04T22:22:23.319Z,25.30
2018-06-04T22:24:51.394Z,25.40
2018-06-04T22:27:19.471Z,25.40
2018-06-04T22:29:47.552Z,25.40
2018-06-04T22:32:15.626Z,25.30
2018-06-04T22:34:43.702Z,25.20
2018-06-04T22:37:11.782Z,25.10
2018-06-04T22:39:39.888Z,25.20
2018-06-04T22:42:07.959Z,25.10
2018-06-04T22:44:36.067Z,24.90
2018-06-04T22:49:32.083Z,24.80
2018-06-04T22:52:00.176Z,24.70
2018-06-04T22:54:28.281Z,24.50
2018-06-04T22:56:56.352Z,24.30
2018-06-04T22:59:24.436Z,24.20
2018-06-04T23:01:52.515Z,24.10
2018-06-04T23:04:20.635Z,24.20
2018-06-04T23:06:48.739Z,24.20
2018-06-04T23:09:17.028Z,24.30
2018-06-04T23:11:45.087Z,24.50
2018-06-04T23:14:13.177Z,24.60
2018-06-04T23:16:41.235Z,24.60
2018-06-04T23:19:09.411Z,24.60
2018-06-04T23:21:37.474Z,24.50
2018-06-04T23:24:05.581Z,24.40
2018-06-04T23:26:33.643Z,24.30
2018-06-04T23:29:01.770Z,24.30
2018-06-04T23:31:29.849Z,24.40
2018-06-04T23:33:57.914Z,24.50
2018-06-04T23:36:25.989Z,24.60
2018-06-04T23:38:54.059Z,24.40
2018-06-04T23:41:22.171Z,24.50
2018-06-04T23:43:50.238Z,24.40
2018-06-04T23:46:18.321Z,24.40
2018-06-04T23:48:46.391Z,24.50
2018-06-04T23:51:14.503Z,24.50
2018-06-04T23:53:42.610Z,24.40
2018-06-04T23:56:10.700Z,24.30
2018-06-04T23:58:38.794Z,24.20
